sensor_id;sensor_type;location;lat;lon;timestamp;P1;durP1;ratioP1;P2;durP2;ratioP2
60908;SDS011;46780;48.128;-1.704;2022-12-16T00:01:25;9.55;;;4.40;;
60908;SDS011;46780;48.128;-1.704;2022-12-16T00:03:52;9.90;;;4.30;;
60908;SDS011;46780;48.128;-1.704;2022-12-16T00:06:22;10.65;;;4.13;;
60908;SDS011;46780;48.128;-1.704;2022-12-16T00:08:50;10.80;;;4.57;;
60908;SDS011;46780;48.128;-1.704;2022-12-16T00:11:16;10.95;;;4.15;;
60908;SDS011;46780;48.128;-1.704;2022-12-16T00:13:43;10.48;;;4.22;;
60908;SDS011;46780;48.128;-1.704;2022-12-16T00:16:11;10.38;;;4.13;;
60908;SDS011;46780;48.128;-1.704;2022-12-16T00:18:39;8.98;;;4.10;;
60908;SDS011;46780;48.128;-1.704;2022-12-16T00:21:06;11.80;;;4.13;;
60908;SDS011;46780;48.128;-1.704;2022-12-16T00:23:36;13.63;;;4.68;;
60908;SDS011;46780;48.128;-1.704;2022-12-16T00:26:02;10.80;;;4.28;;
60908;SDS011;46780;48.128;-1.704;2022-12-16T00:28:30;12.23;;;4.05;;
60908;SDS011;46780;48.128;-1.704;2022-12-16T00:30:57;10.00;;;4.40;;
60908;SDS011;46780;48.128;-1.704;2022-12-16T00:33:24;9.77;;;4.20;;
60908;SDS011;46780;48.128;-1.704;2022-12-16T00:35:51;11.18;;;4.28;;
60908;SDS011;46780;48.128;-1.704;2022-12-16T00:38:18;9.57;;;4.20;;
60908;SDS011;46780;48.128;-1.704;2022-12-16T00:40:46;11.73;;;4.90;;
60908;SDS011;46780;48.128;-1.704;2022-12-16T00:43:13;11.80;;;4.45;;
60908;SDS011;46780;48.128;-1.704;2022-12-16T00:45:39;12.32;;;4.90;;
60908;SDS011;46780;48.128;-1.704;2022-12-16T00:48:06;10.52;;;4.43;;
60908;SDS011;46780;48.128;-1.704;2022-12-16T00:50:32;13.00;;;4.57;;
60908;SDS011;46780;48.128;-1.704;2022-12-16T00:52:59;9.55;;;4.32;;
60908;SDS011;46780;48.128;-1.704;2022-12-16T00:55:26;11.57;;;4.75;;
60908;SDS011;46780;48.128;-1.704;2022-12-16T00:57:54;11.35;;;5.00;;
60908;SDS011;46780;48.128;-1.704;2022-12-16T01:00:21;11.63;;;5.13;;
60908;SDS011;46780;48.128;-1.704;2022-12-16T01:02:48;11.65;;;4.75;;
60908;SDS011;46780;48.128;-1.704;2022-12-16T01:05:15;12.00;;;4.88;;
60908;SDS011;46780;48.128;-1.704;2022-12-16T01:07:46;10.75;;;4.45;;
60908;SDS011;46780;48.128;-1.704;2022-12-16T01:10:13;11.25;;;4.68;;
60908;SDS011;46780;48.128;-1.704;2022-12-16T01:12:39;11.90;;;5.22;;
60908;SDS011;46780;48.128;-1.704;2022-12-16T01:15:08;11.95;;;5.10;;
60908;SDS011;46780;48.128;-1.704;2022-12-16T01:17:35;10.82;;;4.90;;
60908;SDS011;46780;48.128;-1.704;2022-12-16T01:20:02;11.27;;;4.95;;
60908;SDS011;46780;48.128;-1.704;2022-12-16T01:22:29;15.25;;;5.10;;
60908;SDS011;46780;48.128;-1.704;2022-12-16T01:24:56;14.10;;;5.10;;
60908;SDS011;46780;48.128;-1.704;2022-12-16T01:27:22;12.20;;;5.03;;
60908;SDS011;46780;48.128;-1.704;2022-12-16T01:29:49;9.70;;;4.75;;
60908;SDS011;46780;48.128;-1.704;2022-12-16T01:32:17;12.52;;;5.72;;
60908;SDS011;46780;48.128;-1.704;2022-12-16T01:34:47;13.02;;;4.88;;
60908;SDS011;46780;48.128;-1.704;2022-12-16T01:37:14;13.38;;;5.20;;
60908;SDS011;46780;48.128;-1.704;2022-12-16T01:39:41;12.70;;;5.13;;
60908;SDS011;46780;48.128;-1.704;2022-12-16T01:42:08;12.10;;;5.22;;
60908;SDS011;46780;48.128;-1.704;2022-12-16T01:44:37;11.23;;;5.05;;
60908;SDS011;46780;48.128;-1.704;2022-12-16T01:47:04;11.52;;;5.05;;
60908;SDS011;46780;48.128;-1.704;2022-12-16T01:49:33;10.93;;;4.95;;
60908;SDS011;46780;48.128;-1.704;2022-12-16T01:52:03;13.82;;;5.13;;
60908;SDS011;46780;48.128;-1.704;2022-12-16T01:57:01;12.55;;;5.03;;
60908;SDS011;46780;48.128;-1.704;2022-12-16T01:59:31;13.43;;;5.38;;
60908;SDS011;46780;48.128;-1.704;2022-12-16T02:02:03;10.85;;;5.30;;
60908;SDS011;46780;48.128;-1.704;2022-12-16T02:04:35;14.70;;;4.90;;
60908;SDS011;46780;48.128;-1.704;2022-12-16T02:07:01;11.20;;;5.50;;
60908;SDS011;46780;48.128;-1.704;2022-12-16T02:09:27;11.48;;;5.30;;
60908;SDS011;46780;48.128;-1.704;2022-12-16T02:12:10;13.80;;;5.78;;
60908;SDS011;46780;48.128;-1.704;2022-12-16T02:14:54;13.15;;;5.55;;
60908;SDS011;46780;48.128;-1.704;2022-12-16T02:17:31;15.18;;;6.03;;
60908;SDS011;46780;48.128;-1.704;2022-12-16T02:20:14;14.88;;;5.85;;
60908;SDS011;46780;48.128;-1.704;2022-12-16T02:23:12;12.60;;;6.05;;
60908;SDS011;46780;48.128;-1.704;2022-12-16T02:26:15;14.07;;;5.60;;
60908;SDS011;46780;48.128;-1.704;2022-12-16T02:29:10;12.10;;;5.55;;
60908;SDS011;46780;48.128;-1.704;2022-12-16T02:31:59;14.60;;;5.97;;
60908;SDS011;46780;48.128;-1.704;2022-12-16T02:34:33;13.98;;;5.90;;
60908;SDS011;46780;48.128;-1.704;2022-12-16T02:37:08;13.40;;;5.90;;
60908;SDS011;46780;48.128;-1.704;2022-12-16T02:39:47;15.23;;;6.15;;
60908;SDS011;46780;48.128;-1.704;2022-12-16T02:42:18;13.25;;;6.68;;
60908;SDS011;46780;48.128;-1.704;2022-12-16T02:44:54;16.25;;;6.25;;
60908;SDS011;46780;48.128;-1.704;2022-12-16T02:47:27;15.77;;;6.25;;
60908;SDS011;46780;48.128;-1.704;2022-12-16T02:49:54;12.93;;;6.10;;
60908;SDS011;46780;48.128;-1.704;2022-12-16T02:52:21;14.40;;;6.38;;
60908;SDS011;46780;48.128;-1.704;2022-12-16T02:54:51;13.85;;;6.70;;
60908;SDS011;46780;48.128;-1.704;2022-12-16T03:00:02;14.63;;;6.50;;
60908;SDS011;46780;48.128;-1.704;2022-12-16T03:02:34;16.15;;;6.63;;
60908;SDS011;46780;48.128;-1.704;2022-12-16T03:05:08;14.82;;;6.40;;
60908;SDS011;46780;48.128;-1.704;2022-12-16T03:07:39;15.30;;;6.65;;
60908;SDS011;46780;48.128;-1.704;2022-12-16T03:10:09;16.55;;;7.10;;
60908;SDS011;46780;48.128;-1.704;2022-12-16T03:15:07;15.55;;;6.15;;
60908;SDS011;46780;48.128;-1.704;2022-12-16T03:17:38;16.15;;;6.47;;
60908;SDS011;46780;48.128;-1.704;2022-12-16T03:20:06;17.27;;;6.47;;
60908;SDS011;46780;48.128;-1.704;2022-12-16T03:22:39;13.75;;;6.03;;
60908;SDS011;46780;48.128;-1.704;2022-12-16T03:25:09;12.25;;;6.00;;
60908;SDS011;46780;48.128;-1.704;2022-12-16T03:27:41;14.77;;;6.20;;
60908;SDS011;46780;48.128;-1.704;2022-12-16T03:30:16;16.60;;;6.88;;
60908;SDS011;46780;48.128;-1.704;2022-12-16T03:32:50;17.23;;;6.70;;
60908;SDS011;46780;48.128;-1.704;2022-12-16T03:35:24;17.75;;;6.95;;
60908;SDS011;46780;48.128;-1.704;2022-12-16T03:37:53;17.75;;;7.15;;
60908;SDS011;46780;48.128;-1.704;2022-12-16T03:40:22;16.80;;;7.15;;
60908;SDS011;46780;48.128;-1.704;2022-12-16T03:42:52;16.23;;;6.97;;
60908;SDS011;46780;48.128;-1.704;2022-12-16T03:45:21;21.35;;;7.50;;
60908;SDS011;46780;48.128;-1.704;2022-12-16T03:47:52;20.17;;;7.63;;
60908;SDS011;46780;48.128;-1.704;2022-12-16T03:50:22;17.95;;;6.85;;
60908;SDS011;46780;48.128;-1.704;2022-12-16T03:52:51;15.15;;;6.75;;
60908;SDS011;46780;48.128;-1.704;2022-12-16T03:55:18;16.23;;;6.97;;
60908;SDS011;46780;48.128;-1.704;2022-12-16T03:57:44;18.42;;;7.45;;
60908;SDS011;46780;48.128;-1.704;2022-12-16T04:00:11;20.90;;;7.00;;
60908;SDS011;46780;48.128;-1.704;2022-12-16T04:02:38;18.83;;;7.20;;
60908;SDS011;46780;48.128;-1.704;2022-12-16T04:05:06;18.38;;;7.57;;
60908;SDS011;46780;48.128;-1.704;2022-12-16T04:07:33;18.67;;;7.35;;
60908;SDS011;46780;48.128;-1.704;2022-12-16T04:09:59;15.48;;;7.20;;
60908;SDS011;46780;48.128;-1.704;2022-12-16T04:12:26;17.45;;;7.55;;
60908;SDS011;46780;48.128;-1.704;2022-12-16T04:14:52;17.33;;;7.15;;
60908;SDS011;46780;48.128;-1.704;2022-12-16T04:17:19;19.63;;;8.00;;
60908;SDS011;46780;48.128;-1.704;2022-12-16T04:19:45;21.08;;;8.00;;
60908;SDS011;46780;48.128;-1.704;2022-12-16T04:22:15;16.35;;;7.45;;
60908;SDS011;46780;48.128;-1.704;2022-12-16T04:24:44;20.80;;;7.93;;
60908;SDS011;46780;48.128;-1.704;2022-12-16T04:27:11;17.92;;;8.40;;
60908;SDS011;46780;48.128;-1.704;2022-12-16T04:29:37;19.70;;;8.10;;
60908;SDS011;46780;48.128;-1.704;2022-12-16T04:32:03;22.58;;;8.07;;
60908;SDS011;46780;48.128;-1.704;2022-12-16T04:34:30;22.65;;;8.18;;
60908;SDS011;46780;48.128;-1.704;2022-12-16T04:36:57;20.58;;;8.38;;
60908;SDS011;46780;48.128;-1.704;2022-12-16T04:39:26;20.00;;;8.05;;
60908;SDS011;46780;48.128;-1.704;2022-12-16T04:41:53;19.60;;;8.60;;
60908;SDS011;46780;48.128;-1.704;2022-12-16T04:44:20;18.08;;;8.40;;
60908;SDS011;46780;48.128;-1.704;2022-12-16T04:46:46;23.08;;;8.70;;
60908;SDS011;46780;48.128;-1.704;2022-12-16T04:49:12;20.98;;;8.65;;
60908;SDS011;46780;48.128;-1.704;2022-12-16T04:51:39;22.63;;;9.68;;
60908;SDS011;46780;48.128;-1.704;2022-12-16T04:54:05;21.30;;;9.35;;
60908;SDS011;46780;48.128;-1.704;2022-12-16T04:56:33;19.27;;;8.63;;
60908;SDS011;46780;48.128;-1.704;2022-12-16T04:59:00;19.77;;;8.77;;
60908;SDS011;46780;48.128;-1.704;2022-12-16T05:01:26;20.45;;;8.88;;
60908;SDS011;46780;48.128;-1.704;2022-12-16T05:03:53;21.65;;;9.20;;
60908;SDS011;46780;48.128;-1.704;2022-12-16T05:06:19;25.35;;;9.13;;
60908;SDS011;46780;48.128;-1.704;2022-12-16T05:08:46;23.23;;;9.68;;
60908;SDS011;46780;48.128;-1.704;2022-12-16T05:11:12;23.08;;;9.15;;
60908;SDS011;46780;48.128;-1.704;2022-12-16T05:13:40;22.95;;;9.45;;
60908;SDS011;46780;48.128;-1.704;2022-12-16T05:16:07;23.83;;;9.52;;
60908;SDS011;46780;48.128;-1.704;2022-12-16T05:18:33;20.13;;;9.23;;
60908;SDS011;46780;48.128;-1.704;2022-12-16T05:21:00;25.92;;;9.15;;
60908;SDS011;46780;48.128;-1.704;2022-12-16T05:23:27;25.92;;;9.82;;
60908;SDS011;46780;48.128;-1.704;2022-12-16T05:25:54;28.67;;;9.57;;
60908;SDS011;46780;48.128;-1.704;2022-12-16T05:28:20;24.42;;;9.50;;
60908;SDS011;46780;48.128;-1.704;2022-12-16T05:30:48;24.13;;;9.57;;
60908;SDS011;46780;48.128;-1.704;2022-12-16T05:33:15;19.30;;;9.52;;
60908;SDS011;46780;48.128;-1.704;2022-12-16T05:35:41;21.13;;;9.27;;
60908;SDS011;46780;48.128;-1.704;2022-12-16T05:38:07;22.95;;;10.05;;
60908;SDS011;46780;48.128;-1.704;2022-12-16T05:40:34;24.40;;;10.38;;
60908;SDS011;46780;48.128;-1.704;2022-12-16T05:43:00;37.40;;;14.00;;
60908;SDS011;46780;48.128;-1.704;2022-12-16T05:45:27;25.27;;;10.77;;
60908;SDS011;46780;48.128;-1.704;2022-12-16T05:47:55;27.20;;;10.32;;
60908;SDS011;46780;48.128;-1.704;2022-12-16T05:50:21;31.48;;;10.40;;
60908;SDS011;46780;48.128;-1.704;2022-12-16T05:52:48;25.08;;;9.55;;
60908;SDS011;46780;48.128;-1.704;2022-12-16T05:55:15;26.85;;;10.38;;
60908;SDS011;46780;48.128;-1.704;2022-12-16T05:57:41;26.00;;;10.55;;
60908;SDS011;46780;48.128;-1.704;2022-12-16T06:00:08;26.85;;;10.52;;
60908;SDS011;46780;48.128;-1.704;2022-12-16T06:02:36;36.05;;;14.90;;
60908;SDS011;46780;48.128;-1.704;2022-12-16T06:05:04;26.58;;;11.50;;
60908;SDS011;46780;48.128;-1.704;2022-12-16T06:07:31;24.02;;;10.82;;
60908;SDS011;46780;48.128;-1.704;2022-12-16T06:09:57;30.05;;;11.60;;
60908;SDS011;46780;48.128;-1.704;2022-12-16T06:12:24;33.97;;;12.18;;
60908;SDS011;46780;48.128;-1.704;2022-12-16T06:14:50;33.08;;;12.55;;
60908;SDS011;46780;48.128;-1.704;2022-12-16T06:17:17;34.42;;;13.88;;
60908;SDS011;46780;48.128;-1.704;2022-12-16T06:19:44;26.38;;;11.32;;
60908;SDS011;46780;48.128;-1.704;2022-12-16T06:22:12;24.92;;;10.60;;
60908;SDS011;46780;48.128;-1.704;2022-12-16T06:24:39;26.45;;;11.93;;
60908;SDS011;46780;48.128;-1.704;2022-12-16T06:27:05;46.85;;;17.83;;
60908;SDS011;46780;48.128;-1.704;2022-12-16T06:29:32;34.08;;;14.25;;
60908;SDS011;46780;48.128;-1.704;2022-12-16T06:31:58;29.15;;;11.88;;
60908;SDS011;46780;48.128;-1.704;2022-12-16T06:34:25;27.42;;;11.55;;
60908;SDS011;46780;48.128;-1.704;2022-12-16T06:36:51;32.50;;;12.38;;
60908;SDS011;46780;48.128;-1.704;2022-12-16T06:39:19;29.13;;;11.85;;
60908;SDS011;46780;48.128;-1.704;2022-12-16T06:41:45;30.40;;;11.93;;
60908;SDS011;46780;48.128;-1.704;2022-12-16T06:44:12;31.33;;;11.88;;
60908;SDS011;46780;48.128;-1.704;2022-12-16T06:46:39;31.27;;;12.52;;
60908;SDS011;46780;48.128;-1.704;2022-12-16T06:49:05;33.85;;;12.77;;
60908;SDS011;46780;48.128;-1.704;2022-12-16T06:51:32;33.22;;;12.50;;
60908;SDS011;46780;48.128;-1.704;2022-12-16T06:53:58;36.05;;;12.93;;
60908;SDS011;46780;48.128;-1.704;2022-12-16T06:56:26;37.20;;;13.10;;
60908;SDS011;46780;48.128;-1.704;2022-12-16T06:58:52;37.00;;;13.45;;
60908;SDS011;46780;48.128;-1.704;2022-12-16T07:01:19;30.17;;;13.73;;
60908;SDS011;46780;48.128;-1.704;2022-12-16T07:03:45;36.47;;;13.65;;
60908;SDS011;46780;48.128;-1.704;2022-12-16T07:06:12;41.17;;;14.38;;
60908;SDS011;46780;48.128;-1.704;2022-12-16T07:08:38;39.15;;;14.73;;
60908;SDS011;46780;48.128;-1.704;2022-12-16T07:11:05;34.10;;;13.77;;
60908;SDS011;46780;48.128;-1.704;2022-12-16T07:13:32;33.38;;;14.38;;
60908;SDS011;46780;48.128;-1.704;2022-12-16T07:15:59;31.40;;;14.85;;
60908;SDS011;46780;48.128;-1.704;2022-12-16T07:18:25;35.53;;;14.93;;
60908;SDS011;46780;48.128;-1.704;2022-12-16T07:20:52;38.58;;;15.00;;
60908;SDS011;46780;48.128;-1.704;2022-12-16T07:23:18;47.90;;;16.48;;
60908;SDS011;46780;48.128;-1.704;2022-12-16T07:25:45;39.55;;;15.93;;
60908;SDS011;46780;48.128;-1.704;2022-12-16T07:28:11;41.40;;;16.00;;
60908;SDS011;46780;48.128;-1.704;2022-12-16T07:30:39;44.50;;;16.55;;
60908;SDS011;46780;48.128;-1.704;2022-12-16T07:33:07;45.65;;;17.00;;
60908;SDS011;46780;48.128;-1.704;2022-12-16T07:35:33;38.67;;;15.55;;
60908;SDS011;46780;48.128;-1.704;2022-12-16T07:38:00;40.88;;;15.95;;
60908;SDS011;46780;48.128;-1.704;2022-12-16T07:40:26;40.13;;;15.48;;
60908;SDS011;46780;48.128;-1.704;2022-12-16T07:42:53;40.33;;;15.48;;
60908;SDS011;46780;48.128;-1.704;2022-12-16T07:45:19;42.35;;;16.80;;
60908;SDS011;46780;48.128;-1.704;2022-12-16T07:47:47;38.92;;;15.18;;
60908;SDS011;46780;48.128;-1.704;2022-12-16T07:50:14;47.67;;;16.63;;
60908;SDS011;46780;48.128;-1.704;2022-12-16T07:52:40;41.53;;;16.08;;
60908;SDS011;46780;48.128;-1.704;2022-12-16T07:55:07;40.40;;;16.38;;
60908;SDS011;46780;48.128;-1.704;2022-12-16T07:57:34;49.13;;;16.10;;
60908;SDS011;46780;48.128;-1.704;2022-12-16T08:00:00;41.78;;;15.43;;
60908;SDS011;46780;48.128;-1.704;2022-12-16T08:02:27;35.28;;;15.52;;
60908;SDS011;46780;48.128;-1.704;2022-12-16T08:04:55;42.45;;;16.80;;
60908;SDS011;46780;48.128;-1.704;2022-12-16T08:07:21;40.72;;;16.20;;
60908;SDS011;46780;48.128;-1.704;2022-12-16T08:09:48;41.22;;;16.63;;
60908;SDS011;46780;48.128;-1.704;2022-12-16T08:12:14;41.40;;;15.98;;
60908;SDS011;46780;48.128;-1.704;2022-12-16T08:14:41;40.85;;;16.60;;
60908;SDS011;46780;48.128;-1.704;2022-12-16T08:17:07;38.95;;;15.73;;
60908;SDS011;46780;48.128;-1.704;2022-12-16T08:19:34;38.00;;;16.02;;
60908;SDS011;46780;48.128;-1.704;2022-12-16T08:22:02;40.50;;;16.27;;
60908;SDS011;46780;48.128;-1.704;2022-12-16T08:24:28;35.67;;;16.10;;
60908;SDS011;46780;48.128;-1.704;2022-12-16T08:26:55;40.10;;;16.33;;
60908;SDS011;46780;48.128;-1.704;2022-12-16T08:29:21;41.50;;;17.27;;
60908;SDS011;46780;48.128;-1.704;2022-12-16T08:31:48;48.33;;;16.77;;
60908;SDS011;46780;48.128;-1.704;2022-12-16T08:34:14;47.85;;;16.27;;
60908;SDS011;46780;48.128;-1.704;2022-12-16T08:36:40;42.60;;;17.35;;
60908;SDS011;46780;48.128;-1.704;2022-12-16T08:39:09;46.78;;;16.92;;
60908;SDS011;46780;48.128;-1.704;2022-12-16T08:41:35;39.90;;;17.52;;
60908;SDS011;46780;48.128;-1.704;2022-12-16T08:44:01;42.92;;;18.60;;
60908;SDS011;46780;48.128;-1.704;2022-12-16T08:46:28;49.97;;;18.85;;
60908;SDS011;46780;48.128;-1.704;2022-12-16T08:48:54;55.75;;;19.92;;
60908;SDS011;46780;48.128;-1.704;2022-12-16T08:51:21;42.38;;;18.35;;
60908;SDS011;46780;48.128;-1.704;2022-12-16T08:53:48;50.15;;;20.20;;
60908;SDS011;46780;48.128;-1.704;2022-12-16T08:56:16;54.90;;;20.08;;
60908;SDS011;46780;48.128;-1.704;2022-12-16T08:58:42;50.15;;;20.58;;
60908;SDS011;46780;48.128;-1.704;2022-12-16T09:01:09;44.67;;;19.83;;
60908;SDS011;46780;48.128;-1.704;2022-12-16T09:03:35;58.15;;;20.75;;
60908;SDS011;46780;48.128;-1.704;2022-12-16T09:06:02;46.40;;;19.13;;
60908;SDS011;46780;48.128;-1.704;2022-12-16T09:08:29;48.95;;;18.63;;
60908;SDS011;46780;48.128;-1.704;2022-12-16T09:10:58;38.08;;;17.38;;
60908;SDS011;46780;48.128;-1.704;2022-12-16T09:13:27;41.93;;;18.77;;
60908;SDS011;46780;48.128;-1.704;2022-12-16T09:15:53;48.05;;;18.02;;
60908;SDS011;46780;48.128;-1.704;2022-12-16T09:18:20;41.38;;;18.20;;
60908;SDS011;46780;48.128;-1.704;2022-12-16T09:20:46;49.83;;;18.73;;
60908;SDS011;46780;48.128;-1.704;2022-12-16T09:23:12;39.70;;;17.67;;
60908;SDS011;46780;48.128;-1.704;2022-12-16T09:25:39;41.97;;;17.83;;
60908;SDS011;46780;48.128;-1.704;2022-12-16T09:28:05;38.15;;;17.65;;
60908;SDS011;46780;48.128;-1.704;2022-12-16T09:30:33;38.35;;;18.30;;
60908;SDS011;46780;48.128;-1.704;2022-12-16T09:33:00;48.45;;;18.98;;
60908;SDS011;46780;48.128;-1.704;2022-12-16T09:35:27;47.00;;;18.92;;
60908;SDS011;46780;48.128;-1.704;2022-12-16T09:37:53;35.50;;;17.60;;
60908;SDS011;46780;48.128;-1.704;2022-12-16T09:40:20;41.80;;;19.05;;
60908;SDS011;46780;48.128;-1.704;2022-12-16T09:42:47;41.85;;;18.27;;
60908;SDS011;46780;48.128;-1.704;2022-12-16T09:45:19;42.40;;;19.45;;
60908;SDS011;46780;48.128;-1.704;2022-12-16T09:48:01;42.97;;;19.60;;
60908;SDS011;46780;48.128;-1.704;2022-12-16T09:50:31;42.40;;;20.52;;
60908;SDS011;46780;48.128;-1.704;2022-12-16T09:53:01;44.45;;;19.77;;
60908;SDS011;46780;48.128;-1.704;2022-12-16T09:55:29;37.60;;;19.00;;
60908;SDS011;46780;48.128;-1.704;2022-12-16T09:57:58;40.42;;;18.30;;
60908;SDS011;46780;48.128;-1.704;2022-12-16T10:00:26;37.55;;;17.33;;
60908;SDS011;46780;48.128;-1.704;2022-12-16T10:02:54;37.00;;;15.40;;
60908;SDS011;46780;48.128;-1.704;2022-12-16T10:05:33;33.47;;;15.80;;
60908;SDS011;46780;48.128;-1.704;2022-12-16T10:08:10;34.25;;;15.45;;
60908;SDS011;46780;48.128;-1.704;2022-12-16T10:10:44;40.15;;;15.90;;
60908;SDS011;46780;48.128;-1.704;2022-12-16T10:13:20;38.58;;;15.18;;
60908;SDS011;46780;48.128;-1.704;2022-12-16T10:15:52;41.40;;;15.73;;
60908;SDS011;46780;48.128;-1.704;2022-12-16T10:18:33;33.00;;;14.88;;
60908;SDS011;46780;48.128;-1.704;2022-12-16T10:21:12;34.83;;;14.57;;
60908;SDS011;46780;48.128;-1.704;2022-12-16T10:23:44;30.13;;;13.90;;
60908;SDS011;46780;48.128;-1.704;2022-12-16T10:26:19;35.42;;;14.55;;
60908;SDS011;46780;48.128;-1.704;2022-12-16T10:28:53;28.50;;;13.45;;
60908;SDS011;46780;48.128;-1.704;2022-12-16T10:31:25;32.05;;;14.18;;
60908;SDS011;46780;48.128;-1.704;2022-12-16T10:33:53;30.35;;;13.68;;
60908;SDS011;46780;48.128;-1.704;2022-12-16T10:36:21;29.80;;;13.90;;
60908;SDS011;46780;48.128;-1.704;2022-12-16T10:38:49;30.48;;;13.93;;
60908;SDS011;46780;48.128;-1.704;2022-12-16T10:41:18;34.35;;;13.35;;
60908;SDS011;46780;48.128;-1.704;2022-12-16T10:43:46;33.22;;;13.65;;
60908;SDS011;46780;48.128;-1.704;2022-12-16T10:46:15;28.83;;;13.35;;
60908;SDS011;46780;48.128;-1.704;2022-12-16T10:48:45;29.27;;;12.55;;
60908;SDS011;46780;48.128;-1.704;2022-12-16T10:51:13;27.13;;;13.00;;
60908;SDS011;46780;48.128;-1.704;2022-12-16T10:53:42;29.08;;;12.75;;
60908;SDS011;46780;48.128;-1.704;2022-12-16T10:56:13;27.80;;;12.73;;
60908;SDS011;46780;48.128;-1.704;2022-12-16T10:58:51;35.72;;;13.65;;
60908;SDS011;46780;48.128;-1.704;2022-12-16T11:01:20;29.27;;;12.83;;
60908;SDS011;46780;48.128;-1.704;2022-12-16T11:03:47;27.95;;;13.32;;
60908;SDS011;46780;48.128;-1.704;2022-12-16T11:06:15;27.50;;;12.65;;
60908;SDS011;46780;48.128;-1.704;2022-12-16T11:08:46;27.30;;;13.55;;
60908;SDS011;46780;48.128;-1.704;2022-12-16T11:11:17;29.55;;;14.60;;
60908;SDS011;46780;48.128;-1.704;2022-12-16T11:13:46;32.00;;;14.02;;
60908;SDS011;46780;48.128;-1.704;2022-12-16T11:16:14;35.15;;;13.73;;
60908;SDS011;46780;48.128;-1.704;2022-12-16T11:18:47;30.70;;;13.63;;
60908;SDS011;46780;48.128;-1.704;2022-12-16T11:21:15;26.67;;;13.18;;
60908;SDS011;46780;48.128;-1.704;2022-12-16T11:23:43;35.28;;;12.75;;
60908;SDS011;46780;48.128;-1.704;2022-12-16T11:26:12;29.50;;;11.90;;
60908;SDS011;46780;48.128;-1.704;2022-12-16T11:31:09;27.25;;;11.70;;
60908;SDS011;46780;48.128;-1.704;2022-12-16T11:33:38;23.50;;;11.73;;
60908;SDS011;46780;48.128;-1.704;2022-12-16T11:36:08;29.50;;;11.88;;
60908;SDS011;46780;48.128;-1.704;2022-12-16T11:38:39;29.20;;;12.07;;
60908;SDS011;46780;48.128;-1.704;2022-12-16T11:41:08;30.35;;;12.18;;
60908;SDS011;46780;48.128;-1.704;2022-12-16T11:43:42;32.38;;;12.90;;
60908;SDS011;46780;48.128;-1.704;2022-12-16T11:46:14;28.00;;;12.43;;
60908;SDS011;46780;48.128;-1.704;2022-12-16T11:48:46;26.45;;;11.63;;
60908;SDS011;46780;48.128;-1.704;2022-12-16T11:51:15;28.00;;;12.55;;
60908;SDS011;46780;48.128;-1.704;2022-12-16T11:53:44;29.77;;;12.85;;
60908;SDS011;46780;48.128;-1.704;2022-12-16T11:56:16;27.50;;;12.50;;
60908;SDS011;46780;48.128;-1.704;2022-12-16T11:58:47;31.23;;;12.32;;
60908;SDS011;46780;48.128;-1.704;2022-12-16T12:03:45;28.73;;;12.82;;
60908;SDS011;46780;48.128;-1.704;2022-12-16T12:06:17;23.77;;;12.65;;
60908;SDS011;46780;48.128;-1.704;2022-12-16T12:08:51;33.28;;;12.43;;
60908;SDS011;46780;48.128;-1.704;2022-12-16T12:11:25;32.17;;;12.40;;
60908;SDS011;46780;48.128;-1.704;2022-12-16T12:13:59;24.60;;;11.10;;
60908;SDS011;46780;48.128;-1.704;2022-12-16T12:16:37;26.95;;;10.98;;
60908;SDS011;46780;48.128;-1.704;2022-12-16T12:19:16;21.55;;;10.70;;
60908;SDS011;46780;48.128;-1.704;2022-12-16T12:21:46;26.25;;;10.95;;
60908;SDS011;46780;48.128;-1.704;2022-12-16T12:24:20;21.33;;;10.10;;
60908;SDS011;46780;48.128;-1.704;2022-12-16T12:26:56;23.88;;;10.07;;
60908;SDS011;46780;48.128;-1.704;2022-12-16T12:29:30;26.35;;;10.02;;
60908;SDS011;46780;48.128;-1.704;2022-12-16T12:32:09;22.48;;;10.30;;
60908;SDS011;46780;48.128;-1.704;2022-12-16T12:34:44;23.90;;;9.38;;
60908;SDS011;46780;48.128;-1.704;2022-12-16T12:37:20;20.83;;;9.27;;
60908;SDS011;46780;48.128;-1.704;2022-12-16T12:39:51;22.27;;;8.55;;
60908;SDS011;46780;48.128;-1.704;2022-12-16T12:42:27;20.88;;;8.80;;
60908;SDS011;46780;48.128;-1.704;2022-12-16T12:45:03;19.90;;;8.35;;
60908;SDS011;46780;48.128;-1.704;2022-12-16T12:47:46;20.17;;;8.10;;
60908;SDS011;46780;48.128;-1.704;2022-12-16T12:50:22;23.90;;;8.43;;
60908;SDS011;46780;48.128;-1.704;2022-12-16T12:53:03;20.02;;;7.75;;
60908;SDS011;46780;48.128;-1.704;2022-12-16T12:55:36;16.17;;;7.03;;
60908;SDS011;46780;48.128;-1.704;2022-12-16T12:58:09;20.98;;;7.25;;
60908;SDS011;46780;48.128;-1.704;2022-12-16T13:00:39;19.38;;;6.88;;
60908;SDS011;46780;48.128;-1.704;2022-12-16T13:03:12;15.60;;;6.93;;
60908;SDS011;46780;48.128;-1.704;2022-12-16T13:05:42;18.33;;;7.80;;
60908;SDS011;46780;48.128;-1.704;2022-12-16T13:11:10;19.45;;;7.47;;
60908;SDS011;46780;48.128;-1.704;2022-12-16T13:13:39;19.05;;;7.20;;
60908;SDS011;46780;48.128;-1.704;2022-12-16T13:16:08;18.35;;;7.72;;
60908;SDS011;46780;48.128;-1.704;2022-12-16T13:18:36;14.82;;;6.07;;
60908;SDS011;46780;48.128;-1.704;2022-12-16T13:21:02;20.92;;;6.65;;
60908;SDS011;46780;48.128;-1.704;2022-12-16T13:23:30;18.33;;;6.55;;
60908;SDS011;46780;48.128;-1.704;2022-12-16T13:26:02;16.95;;;6.53;;
60908;SDS011;46780;48.128;-1.704;2022-12-16T13:28:31;21.70;;;6.10;;
60908;SDS011;46780;48.128;-1.704;2022-12-16T13:31:01;13.48;;;5.60;;
60908;SDS011;46780;48.128;-1.704;2022-12-16T13:33:29;17.02;;;5.60;;
60908;SDS011;46780;48.128;-1.704;2022-12-16T13:35:57;14.73;;;5.97;;
60908;SDS011;46780;48.128;-1.704;2022-12-16T13:38:24;16.52;;;5.90;;
60908;SDS011;46780;48.128;-1.704;2022-12-16T13:40:52;21.33;;;6.57;;
60908;SDS011;46780;48.128;-1.704;2022-12-16T13:46:15;19.73;;;5.97;;
60908;SDS011;46780;48.128;-1.704;2022-12-16T13:48:42;17.00;;;6.35;;
60908;SDS011;46780;48.128;-1.704;2022-12-16T13:51:08;19.70;;;5.68;;
60908;SDS011;46780;48.128;-1.704;2022-12-16T13:54:14;14.55;;;5.32;;
60908;SDS011;46780;48.128;-1.704;2022-12-16T13:56:42;17.63;;;5.78;;
60908;SDS011;46780;48.128;-1.704;2022-12-16T13:59:13;17.23;;;5.40;;
60908;SDS011;46780;48.128;-1.704;2022-12-16T14:01:44;15.13;;;4.90;;
60908;SDS011;46780;48.128;-1.704;2022-12-16T14:04:21;13.85;;;5.00;;
60908;SDS011;46780;48.128;-1.704;2022-12-16T14:06:51;17.27;;;5.25;;
60908;SDS011;46780;48.128;-1.704;2022-12-16T14:09:28;12.45;;;5.20;;
60908;SDS011;46780;48.128;-1.704;2022-12-16T14:11:59;17.88;;;5.68;;
60908;SDS011;46780;48.128;-1.704;2022-12-16T14:14:33;17.65;;;5.75;;
60908;SDS011;46780;48.128;-1.704;2022-12-16T14:17:05;20.58;;;6.30;;
60908;SDS011;46780;48.128;-1.704;2022-12-16T14:19:41;16.45;;;5.97;;
60908;SDS011;46780;48.128;-1.704;2022-12-16T14:22:21;18.52;;;6.38;;
60908;SDS011;46780;48.128;-1.704;2022-12-16T14:24:55;24.02;;;6.70;;
60908;SDS011;46780;48.128;-1.704;2022-12-16T14:27:30;19.70;;;5.93;;
60908;SDS011;46780;48.128;-1.704;2022-12-16T14:30:00;18.95;;;5.85;;
60908;SDS011;46780;48.128;-1.704;2022-12-16T14:32:28;15.55;;;6.18;;
60908;SDS011;46780;48.128;-1.704;2022-12-16T14:34:59;17.60;;;6.00;;
60908;SDS011;46780;48.128;-1.704;2022-12-16T14:37:31;18.73;;;6.05;;
60908;SDS011;46780;48.128;-1.704;2022-12-16T14:40:01;17.75;;;6.40;;
60908;SDS011;46780;48.128;-1.704;2022-12-16T14:42:29;17.95;;;5.97;;
60908;SDS011;46780;48.128;-1.704;2022-12-16T14:44:56;17.75;;;6.10;;
60908;SDS011;46780;48.128;-1.704;2022-12-16T14:47:22;17.98;;;6.38;;